sensor_id;sensor_type;location;lat;lon;timestamp;temperature;humidity
8261;DHT22;64115;50.170;8.242;2023-01-26T00:01:13;-2.20;99.90
8261;DHT22;64115;50.170;8.242;2023-01-26T00:03:40;-2.20;99.90
8261;DHT22;64115;50.170;8.242;2023-01-26T00:06:09;-2.30;99.90
8261;DHT22;64115;50.170;8.242;2023-01-26T00:08:38;-2.30;99.90
8261;DHT22;64115;50.170;8.242;2023-01-26T00:11:08;-2.20;99.90
8261;DHT22;64115;50.170;8.242;2023-01-26T00:13:36;-2.10;99.90
8261;DHT22;64115;50.170;8.242;2023-01-26T00:16:06;-2.20;99.90
8261;DHT22;64115;50.170;8.242;2023-01-26T00:18:36;-2.10;99.90
8261;DHT22;64115;50.170;8.242;2023-01-26T00:21:04;-2.00;99.90
8261;DHT22;64115;50.170;8.242;2023-01-26T00:23:32;-2.00;99.90
8261;DHT22;64115;50.170;8.242;2023-01-26T00:26:04;-2.00;99.90
8261;DHT22;64115;50.170;8.242;2023-01-26T00:28:32;-2.00;99.90
8261;DHT22;64115;50.170;8.242;2023-01-26T00:31:01;-1.90;99.90
8261;DHT22;64115;50.170;8.242;2023-01-26T00:33:29;-2.00;99.90
8261;DHT22;64115;50.170;8.242;2023-01-26T00:35:56;-2.00;99.90
8261;DHT22;64115;50.170;8.242;2023-01-26T00:38:23;-2.00;99.90
8261;DHT22;64115;50.170;8.242;2023-01-26T00:40:51;-2.00;99.90
8261;DHT22;64115;50.170;8.242;2023-01-26T00:43:19;-2.00;99.90
8261;DHT22;64115;50.170;8.242;2023-01-26T00:45:46;-2.10;99.90
8261;DHT22;64115;50.170;8.242;2023-01-26T00:48:14;-2.10;99.90
8261;DHT22;64115;50.170;8.242;2023-01-26T00:50:41;-2.10;99.90
8261;DHT22;64115;50.170;8.242;2023-01-26T00:53:08;-2.20;99.90
8261;DHT22;64115;50.170;8.242;2023-01-26T00:55:35;-2.20;99.90
8261;DHT22;64115;50.170;8.242;2023-01-26T00:58:05;-2.20;99.90
8261;DHT22;64115;50.170;8.242;2023-01-26T01:00:37;-2.10;99.90
8261;DHT22;64115;50.170;8.242;2023-01-26T01:03:04;-2.10;99.90
8261;DHT22;64115;50.170;8.242;2023-01-26T01:05:32;-2.10;99.90
8261;DHT22;64115;50.170;8.242;2023-01-26T01:07:59;-2.10;99.90
8261;DHT22;64115;50.170;8.242;2023-01-26T01:10:27;-2.20;99.90
8261;DHT22;64115;50.170;8.242;2023-01-26T01:12:54;-2.20;99.90
8261;DHT22;64115;50.170;8.242;2023-01-26T01:15:22;-2.20;99.90
8261;DHT22;64115;50.170;8.242;2023-01-26T01:17:51;-2.20;99.90
8261;DHT22;64115;50.170;8.242;2023-01-26T01:20:18;-2.20;99.90
8261;DHT22;64115;50.170;8.242;2023-01-26T01:22:45;-2.20;99.90
8261;DHT22;64115;50.170;8.242;2023-01-26T01:25:13;-2.20;99.90
8261;DHT22;64115;50.170;8.242;2023-01-26T01:27:40;-2.30;99.90
8261;DHT22;64115;50.170;8.242;2023-01-26T01:30:08;-2.20;99.90
8261;DHT22;64115;50.170;8.242;2023-01-26T01:32:36;-2.10;99.90
8261;DHT22;64115;50.170;8.242;2023-01-26T01:35:06;-2.20;99.90
8261;DHT22;64115;50.170;8.242;2023-01-26T01:37:33;-2.20;99.90
8261;DHT22;64115;50.170;8.242;2023-01-26T01:40:01;-2.20;99.90
8261;DHT22;64115;50.170;8.242;2023-01-26T01:42:28;-2.30;99.90
8261;DHT22;64115;50.170;8.242;2023-01-26T01:45:26;-2.20;99.90
8261;DHT22;64115;50.170;8.242;2023-01-26T01:48:01;-2.20;99.90
8261;DHT22;64115;50.170;8.242;2023-01-26T01:50:34;-2.20;99.90
8261;DHT22;64115;50.170;8.242;2023-01-26T01:53:03;-2.30;99.90
8261;DHT22;64115;50.170;8.242;2023-01-26T01:55:33;-2.30;99.90
8261;DHT22;64115;50.170;8.242;2023-01-26T01:58:02;-2.30;99.90
8261;DHT22;64115;50.170;8.242;2023-01-26T02:00:29;-2.30;99.90
8261;DHT22;64115;50.170;8.242;2023-01-26T02:02:59;-2.30;99.90
8261;DHT22;64115;50.170;8.242;2023-01-26T02:05:53;-2.40;99.90
8261;DHT22;64115;50.170;8.242;2023-01-26T02:08:24;-2.50;99.90
8261;DHT22;64115;50.170;8.242;2023-01-26T02:10:54;-2.50;99.90
8261;DHT22;64115;50.170;8.242;2023-01-26T02:13:23;-2.50;99.90
8261;DHT22;64115;50.170;8.242;2023-01-26T02:15:50;-2.50;99.90
8261;DHT22;64115;50.170;8.242;2023-01-26T02:18:17;-2.50;99.90
8261;DHT22;64115;50.170;8.242;2023-01-26T02:20:46;-2.40;99.90
8261;DHT22;64115;50.170;8.242;2023-01-26T02:23:34;-2.40;99.90
8261;DHT22;64115;50.170;8.242;2023-01-26T02:26:12;-2.50;99.90
8261;DHT22;64115;50.170;8.242;2023-01-26T02:28:40;-2.70;99.90
8261;DHT22;64115;50.170;8.242;2023-01-26T02:31:09;-2.80;99.90
8261;DHT22;64115;50.170;8.242;2023-01-26T02:33:37;-2.80;99.90
8261;DHT22;64115;50.170;8.242;2023-01-26T02:36:05;-2.80;99.90
8261;DHT22;64115;50.170;8.242;2023-01-26T02:38:39;-2.80;99.90
8261;DHT22;64115;50.170;8.242;2023-01-26T02:41:09;-2.80;99.90
8261;DHT22;64115;50.170;8.242;2023-01-26T02:43:37;-2.80;99.90
8261;DHT22;64115;50.170;8.242;2023-01-26T02:46:04;-2.70;99.90
8261;DHT22;64115;50.170;8.242;2023-01-26T02:48:32;-2.60;99.90
8261;DHT22;64115;50.170;8.242;2023-01-26T02:51:16;-2.70;99.90
8261;DHT22;64115;50.170;8.242;2023-01-26T02:53:43;-2.70;99.90
8261;DHT22;64115;50.170;8.242;2023-01-26T02:56:11;-2.70;99.90
8261;DHT22;64115;50.170;8.242;2023-01-26T02:58:37;-2.60;99.90
8261;DHT22;64115;50.170;8.242;2023-01-26T03:01:04;-2.60;99.90
8261;DHT22;64115;50.170;8.242;2023-01-26T03:03:31;-2.70;99.90
8261;DHT22;64115;50.170;8.242;2023-01-26T03:06:08;-2.60;99.90
8261;DHT22;64115;50.170;8.242;2023-01-26T03:08:36;-2.70;99.90
8261;DHT22;64115;50.170;8.242;2023-01-26T03:11:04;-2.70;99.90
8261;DHT22;64115;50.170;8.242;2023-01-26T03:13:33;-2.70;99.90
8261;DHT22;64115;50.170;8.242;2023-01-26T03:16:00;-2.70;99.90
8261;DHT22;64115;50.170;8.242;2023-01-26T03:18:32;-2.70;99.90
8261;DHT22;64115;50.170;8.242;2023-01-26T03:21:17;-2.70;99.90
8261;DHT22;64115;50.170;8.242;2023-01-26T03:24:03;-2.60;99.90
8261;DHT22;64115;50.170;8.242;2023-01-26T03:26:47;-2.70;99.90
8261;DHT22;64115;50.170;8.242;2023-01-26T03:29:33;-2.70;99.90
8261;DHT22;64115;50.170;8.242;2023-01-26T03:32:00;-2.60;99.90
8261;DHT22;64115;50.170;8.242;2023-01-26T03:34:27;-2.60;99.90
8261;DHT22;64115;50.170;8.242;2023-01-26T03:36:55;-2.60;99.90
8261;DHT22;64115;50.170;8.242;2023-01-26T03:39:22;-2.60;99.90
8261;DHT22;64115;50.170;8.242;2023-01-26T03:42:06;-2.60;99.90
8261;DHT22;64115;50.170;8.242;2023-01-26T03:44:51;-2.60;99.90
8261;DHT22;64115;50.170;8.242;2023-01-26T03:47:36;-2.70;99.90
8261;DHT22;64115;50.170;8.242;2023-01-26T03:50:21;-2.60;99.90
8261;DHT22;64115;50.170;8.242;2023-01-26T03:53:15;-2.60;99.90
8261;DHT22;64115;50.170;8.242;2023-01-26T03:56:00;-2.60;99.90
8261;DHT22;64115;50.170;8.242;2023-01-26T03:58:47;-2.70;99.90
8261;DHT22;64115;50.170;8.242;2023-01-26T04:01:17;-2.60;99.90
8261;DHT22;64115;50.170;8.242;2023-01-26T04:03:51;-2.70;99.90
8261;DHT22;64115;50.170;8.242;2023-01-26T04:06:37;-2.70;99.90
8261;DHT22;64115;50.170;8.242;2023-01-26T04:09:22;-2.80;99.90
8261;DHT22;64115;50.170;8.242;2023-01-26T04:11:49;-2.70;99.90
8261;DHT22;64115;50.170;8.242;2023-01-26T04:14:16;-2.70;99.90
8261;DHT22;64115;50.170;8.242;2023-01-26T04:17:02;-2.80;99.90
8261;DHT22;64115;50.170;8.242;2023-01-26T04:19:47;-2.80;99.90
8261;DHT22;64115;50.170;8.242;2023-01-26T04:22:34;-2.70;99.90
8261;DHT22;64115;50.170;8.242;2023-01-26T04:25:08;-2.70;99.90
8261;DHT22;64115;50.170;8.242;2023-01-26T04:27:36;-2.70;99.90
8261;DHT22;64115;50.170;8.242;2023-01-26T04:30:04;-2.60;99.90
8261;DHT22;64115;50.170;8.242;2023-01-26T04:32:33;-2.70;99.90
8261;DHT22;64115;50.170;8.242;2023-01-26T04:35:00;-2.60;99.90
8261;DHT22;64115;50.170;8.242;2023-01-26T04:37:27;-2.60;99.90
8261;DHT22;64115;50.170;8.242;2023-01-26T04:39:54;-2.60;99.90
8261;DHT22;64115;50.170;8.242;2023-01-26T04:42:21;-2.60;99.90
8261;DHT22;64115;50.170;8.242;2023-01-26T04:44:49;-2.70;99.90
8261;DHT22;64115;50.170;8.242;2023-01-26T04:47:17;-2.70;99.90
8261;DHT22;64115;50.170;8.242;2023-01-26T04:49:45;-2.70;99.90
8261;DHT22;64115;50.170;8.242;2023-01-26T04:52:13;-2.70;99.90
8261;DHT22;64115;50.170;8.242;2023-01-26T04:54:40;-2.70;99.90
8261;DHT22;64115;50.170;8.242;2023-01-26T04:57:07;-2.70;99.90
8261;DHT22;64115;50.170;8.242;2023-01-26T04:59:36;-2.80;99.90
8261;DHT22;64115;50.170;8.242;2023-01-26T05:02:03;-2.80;99.90
8261;DHT22;64115;50.170;8.242;2023-01-26T05:04:30;-2.80;99.90
8261;DHT22;64115;50.170;8.242;2023-01-26T05:06:59;-3.00;99.90
8261;DHT22;64115;50.170;8.242;2023-01-26T05:09:26;-3.00;99.90
8261;DHT22;64115;50.170;8.242;2023-01-26T05:11:53;-3.10;99.90
8261;DHT22;64115;50.170;8.242;2023-01-26T05:14:40;-3.10;99.90
8261;DHT22;64115;50.170;8.242;2023-01-26T05:17:07;-3.00;99.90
8261;DHT22;64115;50.170;8.242;2023-01-26T05:19:34;-3.10;99.90
8261;DHT22;64115;50.170;8.242;2023-01-26T05:22:03;-3.10;99.90
8261;DHT22;64115;50.170;8.242;2023-01-26T05:24:30;-3.10;99.90
8261;DHT22;64115;50.170;8.242;2023-01-26T05:26:57;-3.00;99.90
8261;DHT22;64115;50.170;8.242;2023-01-26T05:29:38;-3.00;99.90
8261;DHT22;64115;50.170;8.242;2023-01-26T05:32:05;-2.90;99.90
8261;DHT22;64115;50.170;8.242;2023-01-26T05:34:32;-2.90;99.90
8261;DHT22;64115;50.170;8.242;2023-01-26T05:36:59;-2.90;99.90
8261;DHT22;64115;50.170;8.242;2023-01-26T05:39:28;-2.80;99.90
8261;DHT22;64115;50.170;8.242;2023-01-26T05:41:55;-2.90;99.90
8261;DHT22;64115;50.170;8.242;2023-01-26T05:44:23;-2.90;99.90
8261;DHT22;64115;50.170;8.242;2023-01-26T05:46:50;-2.90;99.90
8261;DHT22;64115;50.170;8.242;2023-01-26T05:49:17;-2.90;99.90
8261;DHT22;64115;50.170;8.242;2023-01-26T05:51:44;-3.00;99.90
8261;DHT22;64115;50.170;8.242;2023-01-26T05:54:11;-3.00;99.90
8261;DHT22;64115;50.170;8.242;2023-01-26T05:56:40;-3.00;99.90
8261;DHT22;64115;50.170;8.242;2023-01-26T05:59:07;-3.10;99.90
8261;DHT22;64115;50.170;8.242;2023-01-26T06:01:34;-3.20;99.90
8261;DHT22;64115;50.170;8.242;2023-01-26T06:04:01;-3.20;99.90
8261;DHT22;64115;50.170;8.242;2023-01-26T06:06:28;-3.10;99.90
8261;DHT22;64115;50.170;8.242;2023-01-26T06:08:56;-3.10;99.90
8261;DHT22;64115;50.170;8.242;2023-01-26T06:11:23;-3.10;99.90
8261;DHT22;64115;50.170;8.242;2023-01-26T06:13:51;-3.00;99.90
8261;DHT22;64115;50.170;8.242;2023-01-26T06:16:19;-3.00;99.90
8261;DHT22;64115;50.170;8.242;2023-01-26T06:18:47;-2.90;99.90
8261;DHT22;64115;50.170;8.242;2023-01-26T06:21:14;-3.00;99.90
8261;DHT22;64115;50.170;8.242;2023-01-26T06:23:41;-3.10;99.90
8261;DHT22;64115;50.170;8.242;2023-01-26T06:26:08;-3.10;99.90
8261;DHT22;64115;50.170;8.242;2023-01-26T06:28:35;-3.10;99.90
8261;DHT22;64115;50.170;8.242;2023-01-26T06:31:05;-3.10;99.90
8261;DHT22;64115;50.170;8.242;2023-01-26T06:33:34;-3.10;99.90
8261;DHT22;64115;50.170;8.242;2023-01-26T06:36:01;-3.10;99.90
8261;DHT22;64115;50.170;8.242;2023-01-26T06:38:29;-3.10;99.90
8261;DHT22;64115;50.170;8.242;2023-01-26T06:40:58;-3.00;99.90
8261;DHT22;64115;50.170;8.242;2023-01-26T06:43:25;-3.00;99.90
8261;DHT22;64115;50.170;8.242;2023-01-26T06:45:55;-3.00;99.90
8261;DHT22;64115;50.170;8.242;2023-01-26T06:48:24;-2.90;99.90
8261;DHT22;64115;50.170;8.242;2023-01-26T06:50:51;-2.90;99.90
8261;DHT22;64115;50.170;8.242;2023-01-26T06:53:28;-3.00;99.90
8261;DHT22;64115;50.170;8.242;2023-01-26T06:55:56;-2.90;99.90
8261;DHT22;64115;50.170;8.242;2023-01-26T06:58:23;-2.90;99.90
8261;DHT22;64115;50.170;8.242;2023-01-26T07:00:50;-3.00;99.90
8261;DHT22;64115;50.170;8.242;2023-01-26T07:03:17;-3.00;99.90
8261;DHT22;64115;50.170;8.242;2023-01-26T07:05:45;-3.00;99.90
8261;DHT22;64115;50.170;8.242;2023-01-26T07:08:12;-3.00;99.90
8261;DHT22;64115;50.170;8.242;2023-01-26T07:10:40;-3.10;99.90
8261;DHT22;64115;50.170;8.242;2023-01-26T07:13:07;-3.20;99.90
8261;DHT22;64115;50.170;8.242;2023-01-26T07:15:34;-3.30;99.90
8261;DHT22;64115;50.170;8.242;2023-01-26T07:18:01;-3.30;99.90
8261;DHT22;64115;50.170;8.242;2023-01-26T07:20:28;-3.30;99.90
8261;DHT22;64115;50.170;8.242;2023-01-26T07:22:58;-3.30;99.90
8261;DHT22;64115;50.170;8.242;2023-01-26T07:25:25;-3.20;99.90
8261;DHT22;64115;50.170;8.242;2023-01-26T07:27:55;-3.20;99.90
8261;DHT22;64115;50.170;8.242;2023-01-26T07:30:22;-3.20;99.90
8261;DHT22;64115;50.170;8.242;2023-01-26T07:32:49;-3.30;99.90
8261;DHT22;64115;50.170;8.242;2023-01-26T07:35:16;-3.30;99.90
8261;DHT22;64115;50.170;8.242;2023-01-26T07:37:43;-3.40;99.90
8261;DHT22;64115;50.170;8.242;2023-01-26T07:40:12;-3.30;99.90
8261;DHT22;64115;50.170;8.242;2023-01-26T07:42:39;-3.40;99.90
8261;DHT22;64115;50.170;8.242;2023-01-26T07:45:07;-3.50;99.90
8261;DHT22;64115;50.170;8.242;2023-01-26T07:47:34;-3.50;99.90
8261;DHT22;64115;50.170;8.242;2023-01-26T07:50:02;-3.40;99.90
8261;DHT22;64115;50.170;8.242;2023-01-26T07:52:30;-3.30;99.90
8261;DHT22;64115;50.170;8.242;2023-01-26T07:54:57;-3.30;99.90
8261;DHT22;64115;50.170;8.242;2023-01-26T07:57:26;-3.30;99.90
8261;DHT22;64115;50.170;8.242;2023-01-26T07:59:53;-3.20;99.90
8261;DHT22;64115;50.170;8.242;2023-01-26T08:02:20;-3.30;99.90
8261;DHT22;64115;50.170;8.242;2023-01-26T08:04:47;-3.30;99.90
8261;DHT22;64115;50.170;8.242;2023-01-26T08:07:14;-3.20;99.90
8261;DHT22;64115;50.170;8.242;2023-01-26T08:09:41;-3.20;99.90
8261;DHT22;64115;50.170;8.242;2023-01-26T08:12:08;-3.20;99.90
8261;DHT22;64115;50.170;8.242;2023-01-26T08:14:37;-3.20;99.90
8261;DHT22;64115;50.170;8.242;2023-01-26T08:17:04;-3.20;99.90
8261;DHT22;64115;50.170;8.242;2023-01-26T08:19:31;-3.20;99.90
8261;DHT22;64115;50.170;8.242;2023-01-26T08:21:58;-3.20;99.90
8261;DHT22;64115;50.170;8.242;2023-01-26T08:24:25;-3.10;99.90
8261;DHT22;64115;50.170;8.242;2023-01-26T08:26:52;-3.10;99.90
8261;DHT22;64115;50.170;8.242;2023-01-26T08:29:19;-3.20;99.90
8261;DHT22;64115;50.170;8.242;2023-01-26T08:31:48;-3.20;99.90
8261;DHT22;64115;50.170;8.242;2023-01-26T08:34:15;-3.20;99.90
8261;DHT22;64115;50.170;8.242;2023-01-26T08:36:42;-3.30;99.90
8261;DHT22;64115;50.170;8.242;2023-01-26T08:39:09;-3.30;99.90
8261;DHT22;64115;50.170;8.242;2023-01-26T08:41:36;-3.40;99.90
8261;DHT22;64115;50.170;8.242;2023-01-26T08:44:02;-3.40;99.90
8261;DHT22;64115;50.170;8.242;2023-01-26T08:46:29;-3.30;99.90
8261;DHT22;64115;50.170;8.242;2023-01-26T08:48:58;-3.30;99.90
8261;DHT22;64115;50.170;8.242;2023-01-26T08:51:25;-3.20;99.90
8261;DHT22;64115;50.170;8.242;2023-01-26T08:53:52;-3.20;99.90
8261;DHT22;64115;50.170;8.242;2023-01-26T08:56:19;-3.10;99.90
8261;DHT22;64115;50.170;8.242;2023-01-26T08:58:46;-3.20;99.90
8261;DHT22;64115;50.170;8.242;2023-01-26T09:01:15;-3.10;99.90
8261;DHT22;64115;50.170;8.242;2023-01-26T09:03:42;-3.10;99.90
8261;DHT22;64115;50.170;8.242;2023-01-26T09:06:12;-3.10;99.90
8261;DHT22;64115;50.170;8.242;2023-01-26T09:08:40;-3.10;99.90
8261;DHT22;64115;50.170;8.242;2023-01-26T09:11:07;-3.20;99.90
8261;DHT22;64115;50.170;8.242;2023-01-26T09:13:34;-3.20;99.90
8261;DHT22;64115;50.170;8.242;2023-01-26T09:16:04;-3.20;99.90
8261;DHT22;64115;50.170;8.242;2023-01-26T09:18:31;-3.10;99.90
8261;DHT22;64115;50.170;8.242;2023-01-26T09:21:03;-3.10;99.90
8261;DHT22;64115;50.170;8.242;2023-01-26T09:23:32;-3.00;99.90
8261;DHT22;64115;50.170;8.242;2023-01-26T09:26:00;-3.10;99.90
8261;DHT22;64115;50.170;8.242;2023-01-26T09:28:28;-3.20;99.90
8261;DHT22;64115;50.170;8.242;2023-01-26T09:30:55;-3.10;99.90
8261;DHT22;64115;50.170;8.242;2023-01-26T09:33:22;-3.00;99.90
8261;DHT22;64115;50.170;8.242;2023-01-26T09:35:50;-2.90;99.90
8261;DHT22;64115;50.170;8.242;2023-01-26T09:38:16;-2.90;99.90
8261;DHT22;64115;50.170;8.242;2023-01-26T09:40:50;-3.00;99.90
8261;DHT22;64115;50.170;8.242;2023-01-26T09:43:30;-3.00;99.90
8261;DHT22;64115;50.170;8.242;2023-01-26T09:46:05;-3.00;99.90
8261;DHT22;64115;50.170;8.242;2023-01-26T09:48:40;-2.90;99.90
8261;DHT22;64115;50.170;8.242;2023-01-26T09:51:12;-2.80;99.90
8261;DHT22;64115;50.170;8.242;2023-01-26T09:53:44;-2.80;99.90
8261;DHT22;64115;50.170;8.242;2023-01-26T09:56:17;-2.90;99.90
8261;DHT22;64115;50.170;8.242;2023-01-26T09:58:48;-3.10;99.90
8261;DHT22;64115;50.170;8.242;2023-01-26T10:01:20;-2.90;99.90
8261;DHT22;64115;50.170;8.242;2023-01-26T10:03:56;-2.80;99.90
8261;DHT22;64115;50.170;8.242;2023-01-26T10:06:28;-2.60;99.90
8261;DHT22;64115;50.170;8.242;2023-01-26T10:08:59;-2.60;99.90
8261;DHT22;64115;50.170;8.242;2023-01-26T10:11:31;-2.50;99.90
8261;DHT22;64115;50.170;8.242;2023-01-26T10:14:09;-2.40;99.90
8261;DHT22;64115;50.170;8.242;2023-01-26T10:16:38;-2.50;99.90
8261;DHT22;64115;50.170;8.242;2023-01-26T10:19:11;-2.60;99.90
8261;DHT22;64115;50.170;8.242;2023-01-26T10:21:43;-2.70;99.90
8261;DHT22;64115;50.170;8.242;2023-01-26T10:24:11;-2.70;99.90
8261;DHT22;64115;50.170;8.242;2023-01-26T10:26:41;-2.80;99.90
8261;DHT22;64115;50.170;8.242;2023-01-26T10:29:12;-2.80;99.90
8261;DHT22;64115;50.170;8.242;2023-01-26T10:31:41;-2.50;99.90
8261;DHT22;64115;50.170;8.242;2023-01-26T10:34:12;-2.30;99.90
8261;DHT22;64115;50.170;8.242;2023-01-26T10:36:41;-2.10;99.90
8261;DHT22;64115;50.170;8.242;2023-01-26T10:39:11;-2.20;99.90
8261;DHT22;64115;50.170;8.242;2023-01-26T10:41:40;-2.20;99.90
8261;DHT22;64115;50.170;8.242;2023-01-26T10:44:25;-2.10;99.90
8261;DHT22;64115;50.170;8.242;2023-01-26T10:47:04;-2.20;99.90
8261;DHT22;64115;50.170;8.242;2023-01-26T10:49:31;-2.10;99.90
8261;DHT22;64115;50.170;8.242;2023-01-26T10:52:07;-2.20;99.90
8261;DHT22;64115;50.170;8.242;2023-01-26T10:54:35;-2.30;99.90
8261;DHT22;64115;50.170;8.242;2023-01-26T10:57:15;-2.30;99.90
8261;DHT22;64115;50.170;8.242;2023-01-26T10:59:48;-2.20;99.90
8261;DHT22;64115;50.170;8.242;2023-01-26T11:02:21;-2.20;99.90
8261;DHT22;64115;50.170;8.242;2023-01-26T11:05:12;-2.10;99.90
8261;DHT22;64115;50.170;8.242;2023-01-26T11:07:41;-2.00;99.90
8261;DHT22;64115;50.170;8.242;2023-01-26T11:10:26;-1.90;99.90
8261;DHT22;64115;50.170;8.242;2023-01-26T11:13:12;-2.10;99.90
8261;DHT22;64115;50.170;8.242;2023-01-26T11:15:43;-2.10;99.90
8261;DHT22;64115;50.170;8.242;2023-01-26T11:18:36;-2.10;99.90
8261;DHT22;64115;50.170;8.242;2023-01-26T11:21:11;-2.00;99.90
8261;DHT22;64115;50.170;8.242;2023-01-26T11:23:51;-2.00;99.90
8261;DHT22;64115;50.170;8.242;2023-01-26T11:29:50;-2.10;99.90
8261;DHT22;64115;50.170;8.242;2023-01-26T11:32:25;-2.00;99.90
8261;DHT22;64115;50.170;8.242;2023-01-26T11:35:04;-2.10;99.90
8261;DHT22;64115;50.170;8.242;2023-01-26T11:37:42;-2.10;99.90
8261;DHT22;64115;50.170;8.242;2023-01-26T11:40:29;-2.10;99.90
8261;DHT22;64115;50.170;8.242;2023-01-26T11:43:20;-2.20;99.90
8261;DHT22;64115;50.170;8.242;2023-01-26T11:46:10;-2.20;99.90
8261;DHT22;64115;50.170;8.242;2023-01-26T11:48:52;-2.10;99.90
8261;DHT22;64115;50.170;8.242;2023-01-26T11:51:31;-2.10;99.90
8261;DHT22;64115;50.170;8.242;2023-01-26T11:54:29;-2.10;99.90
8261;DHT22;64115;50.170;8.242;2023-01-26T11:57:06;-2.00;99.90
8261;DHT22;64115;50.170;8.242;2023-01-26T11:59:40;-1.90;99.90
8261;DHT22;64115;50.170;8.242;2023-01-26T12:02:23;-2.00;99.90
8261;DHT22;64115;50.170;8.242;2023-01-26T12:04:51;-2.10;99.90
8261;DHT22;64115;50.170;8.242;2023-01-26T12:07:23;-2.20;99.90
8261;DHT22;64115;50.170;8.242;2023-01-26T12:09:53;-2.20;99.90
8261;DHT22;64115;50.170;8.242;2023-01-26T12:12:24;-2.00;99.90
8261;DHT22;64115;50.170;8.242;2023-01-26T12:14:58;-2.10;99.90
8261;DHT22;64115;50.170;8.242;2023-01-26T12:17:34;-2.00;99.90
8261;DHT22;64115;50.170;8.242;2023-01-26T12:20:26;-1.90;99.90
8261;DHT22;64115;50.170;8.242;2023-01-26T12:23:01;-1.70;99.90
8261;DHT22;64115;50.170;8.242;2023-01-26T12:25:32;-1.70;99.90
8261;DHT22;64115;50.170;8.242;2023-01-26T12:28:10;-1.60;99.90
8261;DHT22;64115;50.170;8.242;2023-01-26T12:30:45;-1.50;99.90
8261;DHT22;64115;50.170;8.242;2023-01-26T12:33:15;-1.50;99.90
8261;DHT22;64115;50.170;8.242;2023-01-26T12:35:50;-1.60;99.90
8261;DHT22;64115;50.170;8.242;2023-01-26T12:38:22;-1.80;99.90
8261;DHT22;64115;50.170;8.242;2023-01-26T12:41:04;-1.70;99.90
8261;DHT22;64115;50.170;8.242;2023-01-26T12:43:46;-1.70;99.90
8261;DHT22;64115;50.170;8.242;2023-01-26T12:46:18;-1.60;99.90
8261;DHT22;64115;50.170;8.242;2023-01-26T12:48:50;-1.50;99.90
8261;DHT22;64115;50.170;8.242;2023-01-26T12:51:21;-1.40;99.90
8261;DHT22;64115;50.170;8.242;2023-01-26T12:53:55;-1.40;99.90
8261;DHT22;64115;50.170;8.242;2023-01-26T12:56:27;-1.40;99.90
8261;DHT22;64115;50.170;8.242;2023-01-26T12:58:57;-1.40;99.90
8261;DHT22;64115;50.170;8.242;2023-01-26T13:01:37;-1.30;99.90
8261;DHT22;64115;50.170;8.242;2023-01-26T13:04:27;-1.40;99.90
8261;DHT22;64115;50.170;8.242;2023-01-26T13:07:24;-1.30;99.90
8261;DHT22;64115;50.170;8.242;2023-01-26T13:10:21;-1.10;99.90
8261;DHT22;64115;50.170;8.242;2023-01-26T13:12:50;-0.90;99.90
8261;DHT22;64115;50.170;8.242;2023-01-26T13:15:25;-0.90;99.90
8261;DHT22;64115;50.170;8.242;2023-01-26T13:18:03;-0.90;99.90
8261;DHT22;64115;50.170;8.242;2023-01-26T13:20:44;-0.90;99.90
8261;DHT22;64115;50.170;8.242;2023-01-26T13:29:32;-1.20;99.90
8261;DHT22;64115;50.170;8.242;2023-01-26T13:35:24;-1.40;99.90
8261;DHT22;64115;50.170;8.242;2023-01-26T13:37:59;-1.50;99.90
8261;DHT22;64115;50.170;8.242;2023-01-26T13:40:31;-1.50;99.90
8261;DHT22;64115;50.170;8.242;2023-01-26T13:43:05;-1.60;99.90
8261;DHT22;64115;50.170;8.242;2023-01-26T13:45:35;-1.60;99.90
8261;DHT22;64115;50.170;8.242;2023-01-26T13:48:08;-1.60;99.90
8261;DHT22;64115;50.170;8.242;2023-01-26T13:50:39;-1.50;99.90
8261;DHT22;64115;50.170;8.242;2023-01-26T13:53:32;-1.40;99.90
8261;DHT22;64115;50.170;8.242;2023-01-26T13:56:01;-1.30;99.90
8261;DHT22;64115;50.170;8.242;2023-01-26T13:58:28;-1.10;99.90
8261;DHT22;64115;50.170;8.242;2023-01-26T14:00:58;-1.10;99.90
8261;DHT22;64115;50.170;8.242;2023-01-26T14:03:26;-1.10;99.90
8261;DHT22;64115;50.170;8.242;2023-01-26T14:05:56;-1.10;99.90
8261;DHT22;64115;50.170;8.242;2023-01-26T14:08:24;-1.00;99.90
8261;DHT22;64115;50.170;8.242;2023-01-26T14:10:52;-1.20;99.90
8261;DHT22;64115;50.170;8.242;2023-01-26T14:13:22;-1.30;99.90
8261;DHT22;64115;50.170;8.242;2023-01-26T14:15:55;-1.30;99.90
8261;DHT22;64115;50.170;8.242;2023-01-26T14:18:22;-1.30;99.90
8261;DHT22;64115;50.170;8.242;2023-01-26T14:20:57;-1.30;99.90
8261;DHT22;64115;50.170;8.242;2023-01-26T14:23:27;-1.30;99.90
8261;DHT22;64115;50.170;8.242;2023-01-26T14:25:57;-1.30;99.90
8261;DHT22;64115;50.170;8.242;2023-01-26T14:28:27;-1.30;99.90
8261;DHT22;64115;50.170;8.242;2023-01-26T14:31:00;-1.20;99.90
8261;DHT22;64115;50.170;8.242;2023-01-26T14:33:28;-1.20;99.90
8261;DHT22;64115;50.170;8.242;2023-01-26T14:35:57;-1.20;99.90
8261;DHT22;64115;50.170;8.242;2023-01-26T14:38:28;-1.20;99.90
8261;DHT22;64115;50.170;8.242;2023-01-26T14:40:58;-1.20;99.90
8261;DHT22;64115;50.170;8.242;2023-01-26T14:43:26;-1.20;99.90
8261;DHT22;64115;50.170;8.242;2023-01-26T14:45:57;-1.20;99.90
8261;DHT22;64115;50.170;8.242;2023-01-26T14:48:30;-1.20;99.90
8261;DHT22;64115;50.170;8.242;2023-01-26T14:50:58;-1.10;99.90
8261;DHT22;64115;50.170;8.242;2023-01-26T14:53:27;-1.10;99.90
8261;DHT22;64115;50.170;8.242;2023-01-26T14:55:54;-1.00;99.90
8261;DHT22;64115;50.170;8.242;2023-01-26T14:58:24;-1.00;99.90
8261;DHT22;64115;50.170;8.242;2023-01-26T15:00:53;-1.00;99.90
8261;DHT22;64115;50.170;8.242;2023-01-26T15:03:25;-1.00;99.90
8261;DHT22;64115;50.170;8.242;2023-01-26T15:06:04;-0.90;99.90
8261;DHT22;64115;50.170;8.242;2023-01-26T15:08:33;-0.90;99.90
8261;DHT22;64115;50.170;8.242;2023-01-26T15:11:01;-0.90;99.90
8261;DHT22;64115;50.170;8.242;2023-01-26T15:13:47;-0.80;99.90
8261;DHT22;64115;50.170;8.242;2023-01-26T15:16:20;-0.80;99.90
8261;DHT22;64115;50.170;8.242;2023-01-26T15:18:57;-0.70;99.90
8261;DHT22;64115;50.170;8.242;2023-01-26T15:21:31;-0.70;99.90
8261;DHT22;64115;50.170;8.242;2023-01-26T15:23:59;-0.60;99.90
8261;DHT22;64115;50.170;8.242;2023-01-26T15:26:28;-0.60;99.90
8261;DHT22;64115;50.170;8.242;2023-01-26T15:28:57;-0.70;99.90
8261;DHT22;64115;50.170;8.242;2023-01-26T15:31:29;-0.60;99.90
8261;DHT22;64115;50.170;8.242;2023-01-26T15:33:57;-0.60;99.90
8261;DHT22;64115;50.170;8.242;2023-01-26T15:36:31;-0.60;99.90
8261;DHT22;64115;50.170;8.242;2023-01-26T15:39:03;-0.70;99.90
8261;DHT22;64115;50.170;8.242;2023-01-26T15:41:36;-0.70;99.90
8261;DHT22;64115;50.170;8.242;2023-01-26T15:44:03;-0.70;99.90
8261;DHT22;64115;50.170;8.242;2023-01-26T15:46:30;-0.70;99.90
8261;DHT22;64115;50.170;8.242;2023-01-26T15:48:57;-0.70;99.90
8261;DHT22;64115;50.170;8.242;2023-01-26T15:51:24;-0.70;99.90
8261;DHT22;64115;50.170;8.242;2023-01-26T15:53:51;-0.80;99.90
8261;DHT22;64115;50.170;8.242;2023-01-26T15:56:19;-0.80;99.90
8261;DHT22;64115;50.170;8.242;2023-01-26T15:58:46;-0.80;99.90
8261;DHT22;64115;50.170;8.242;2023-01-26T16:01:17;-0.90;99.90
8261;DHT22;64115;50.170;8.242;2023-01-26T16:03:46;-0.90;99.90
8261;DHT22;64115;50.170;8.242;2023-01-26T16:06:20;-0.90;99.90
8261;DHT22;64115;50.170;8.242;2023-01-26T16:08:48;-0.90;99.90
8261;DHT22;64115;50.170;8.242;2023-01-26T16:11:15;-1.00;99.90
8261;DHT22;64115;50.170;8.242;2023-01-26T16:13:44;-1.00;99.90
8261;DHT22;64115;50.170;8.242;2023-01-26T16:16:12;-1.00;99.90
8261;DHT22;64115;50.170;8.242;2023-01-26T16:18:39;-1.00;99.90
8261;DHT22;64115;50.170;8.242;2023-01-26T16:21:16;-1.10;99.90
8261;DHT22;64115;50.170;8.242;2023-01-26T16:23:44;-1.10;99.90